Skip Navigation Links
NOAA logo - Click to go to the NOAA homepage
NOAA's National Weather Service
Alaska Aviation Weather Unit
  NWS logo - Click to go to the NWS homepage
Left Navbar Graphic     19 AKDT = 03 GMT

   
NOAA is celebrating 200 years of science, service, and stewardship. Visit the NOAA 200th celebration Web site to learn more.
USA.gov is the U.S. Government's official Web portal to all Federal, state and local government Web resources and services.
Facebook
NWS on Facebook

Important Change Regarding the AAWU Web Presence

 

Over the last several months, the AAWU has been working to navigate its webpages to a nationally supported server. Security, as well as other needs, have necessitated the change.  We have been given an extension for the site changeover while we diligently work at addressing feedback received. As of July 14, 2017, aawu.arh.noaa.gov will be discontinued. The new AAWU web address is weather.gov/aawu. It is now live and will run in-parallel with the old site until it is discontinued on July 14, 2017. Please continue to send any feedback or questions regarding the new webpages to nws.ar.aawu.webauthors@noaa.gov.  Thank you for your patience during this time of transition.
AAWU Home :: Display TAF Add Bookmark
METAR PAMK 282156Z AUTO 18015KT 10SM FEW028 BKN065 BKN080 13/07 A2972
     RMK AO2 RAE07 SLP069 P0001 T01330072 $=

METAR PAMK 282256Z AUTO 16013KT 10SM BKN040 OVC080 14/08 A2973 RMK AO2
     SLP072 T01390078 $=

METAR PAMK 282356Z AUTO 16013KT 10SM OVC075 13/07 A2974 RMK AO2
 SLP074 60001 T01330072 10139 20106 51009 $=

METAR PAMK 290056Z AUTO 17014KT 10SM -RA OVC065 13/07 A2975 RMK AO2
     RAB53 SLP078 P0000 T01280072 $=

METAR PAMK 290156Z AUTO 17015KT 10SM FEW033 BKN060 OVC075 13/07 A2976
     RMK AO2 RAE44 SLP080 P0000 T01330072 $=

METAR PAMK 290256Z AUTO 17014KT 10SM FEW029 SCT055 OVC075 13/08 A2976
     RMK AO2 SLP081 60000 T01330078 51007 $=


NOAA's National Weather Service
Alaska Aviation Weather Unit
6930 Sand Lake Road
Anchorage, AK 99502-1845
Disclaimer
Credits
Glossary
Privacy Policy
About Us
Career Opportunities
Contact AAWU Internet Services Site last modified: April, 17th 2012